sensor_id;sensor_type;location;lat;lon;timestamp;temperature;humidity
48752;DHT22;34544;48.836;9.174;2023-04-03T00:01:03;4.80;99.90
48752;DHT22;34544;48.836;9.174;2023-04-03T00:03:28;4.80;99.90
48752;DHT22;34544;48.836;9.174;2023-04-03T00:05:54;4.80;99.90
48752;DHT22;34544;48.836;9.174;2023-04-03T00:08:20;4.80;99.90
48752;DHT22;34544;48.836;9.174;2023-04-03T00:10:46;4.80;99.90
48752;DHT22;34544;48.836;9.174;2023-04-03T00:13:12;4.80;99.90
48752;DHT22;34544;48.836;9.174;2023-04-03T00:15:38;4.80;99.90
48752;DHT22;34544;48.836;9.174;2023-04-03T00:18:04;4.80;99.90
48752;DHT22;34544;48.836;9.174;2023-04-03T00:20:30;4.80;99.90
48752;DHT22;34544;48.836;9.174;2023-04-03T00:22:56;4.80;99.90
48752;DHT22;34544;48.836;9.174;2023-04-03T00:25:22;4.80;99.90
48752;DHT22;34544;48.836;9.174;2023-04-03T00:27:48;4.80;99.90
48752;DHT22;34544;48.836;9.174;2023-04-03T00:30:15;4.80;99.90
48752;DHT22;34544;48.836;9.174;2023-04-03T00:32:41;4.80;99.90
48752;DHT22;34544;48.836;9.174;2023-04-03T00:35:07;4.80;99.90
48752;DHT22;34544;48.836;9.174;2023-04-03T00:37:33;4.80;99.90
48752;DHT22;34544;48.836;9.174;2023-04-03T00:39:59;4.80;99.90
48752;DHT22;34544;48.836;9.174;2023-04-03T00:42:24;4.80;99.90
48752;DHT22;34544;48.836;9.174;2023-04-03T00:47:23;4.80;99.90
48752;DHT22;34544;48.836;9.174;2023-04-03T00:49:51;4.80;99.90
48752;DHT22;34544;48.836;9.174;2023-04-03T00:52:20;4.80;99.90
48752;DHT22;34544;48.836;9.174;2023-04-03T00:54:49;4.80;99.90
48752;DHT22;34544;48.836;9.174;2023-04-03T00:57:17;4.80;99.90
48752;DHT22;34544;48.836;9.174;2023-04-03T00:59:46;4.80;99.90
48752;DHT22;34544;48.836;9.174;2023-04-03T01:02:14;4.70;99.90
48752;DHT22;34544;48.836;9.174;2023-04-03T01:04:42;4.70;99.90
48752;DHT22;34544;48.836;9.174;2023-04-03T01:07:21;4.70;99.90
48752;DHT22;34544;48.836;9.174;2023-04-03T01:09:48;4.70;99.90
48752;DHT22;34544;48.836;9.174;2023-04-03T01:12:27;4.60;99.90
48752;DHT22;34544;48.836;9.174;2023-04-03T01:14:57;4.60;99.90
48752;DHT22;34544;48.836;9.174;2023-04-03T01:25:28;4.50;99.90
48752;DHT22;34544;48.836;9.174;2023-04-03T01:27:55;4.40;99.90
48752;DHT22;34544;48.836;9.174;2023-04-03T01:30:25;4.40;99.90
48752;DHT22;34544;48.836;9.174;2023-04-03T01:32:53;4.40;99.90
48752;DHT22;34544;48.836;9.174;2023-04-03T01:35:19;4.30;99.90
48752;DHT22;34544;48.836;9.174;2023-04-03T01:37:45;4.30;99.90
48752;DHT22;34544;48.836;9.174;2023-04-03T01:40:10;4.30;99.90
48752;DHT22;34544;48.836;9.174;2023-04-03T01:42:36;4.30;99.90
48752;DHT22;34544;48.836;9.174;2023-04-03T01:45:02;4.30;99.90
48752;DHT22;34544;48.836;9.174;2023-04-03T01:47:28;4.30;99.90
48752;DHT22;34544;48.836;9.174;2023-04-03T01:49:54;4.30;99.90
48752;DHT22;34544;48.836;9.174;2023-04-03T01:52:19;4.30;99.90
48752;DHT22;34544;48.836;9.174;2023-04-03T01:54:45;4.30;99.90
48752;DHT22;34544;48.836;9.174;2023-04-03T01:57:11;4.30;99.90
48752;DHT22;34544;48.836;9.174;2023-04-03T01:59:37;4.30;99.90
48752;DHT22;34544;48.836;9.174;2023-04-03T02:02:02;4.30;99.90
48752;DHT22;34544;48.836;9.174;2023-04-03T02:04:28;4.20;99.90
48752;DHT22;34544;48.836;9.174;2023-04-03T02:06:54;4.20;99.90
48752;DHT22;34544;48.836;9.174;2023-04-03T02:09:20;4.20;99.90
48752;DHT22;34544;48.836;9.174;2023-04-03T02:11:45;4.20;99.90
48752;DHT22;34544;48.836;9.174;2023-04-03T02:14:12;4.20;99.90
48752;DHT22;34544;48.836;9.174;2023-04-03T02:16:38;4.20;99.90
48752;DHT22;34544;48.836;9.174;2023-04-03T02:19:04;4.30;99.90
48752;DHT22;34544;48.836;9.174;2023-04-03T02:21:29;4.30;99.90
48752;DHT22;34544;48.836;9.174;2023-04-03T02:23:55;4.30;99.90
48752;DHT22;34544;48.836;9.174;2023-04-03T02:26:22;4.40;99.90
48752;DHT22;34544;48.836;9.174;2023-04-03T02:28:48;4.40;99.90
48752;DHT22;34544;48.836;9.174;2023-04-03T02:31:15;4.40;99.90
48752;DHT22;34544;48.836;9.174;2023-04-03T02:33:43;4.40;99.90
48752;DHT22;34544;48.836;9.174;2023-04-03T02:36:12;4.40;99.90
48752;DHT22;34544;48.836;9.174;2023-04-03T02:38:41;4.40;99.90
48752;DHT22;34544;48.836;9.174;2023-04-03T02:41:11;4.30;99.90
48752;DHT22;34544;48.836;9.174;2023-04-03T02:43:38;4.30;99.90
48752;DHT22;34544;48.836;9.174;2023-04-03T02:46:05;4.30;99.90
48752;DHT22;34544;48.836;9.174;2023-04-03T02:48:30;4.40;99.90
48752;DHT22;34544;48.836;9.174;2023-04-03T02:50:56;4.40;99.90
48752;DHT22;34544;48.836;9.174;2023-04-03T02:53:23;4.40;99.90
48752;DHT22;34544;48.836;9.174;2023-04-03T02:55:49;4.40;99.90
48752;DHT22;34544;48.836;9.174;2023-04-03T02:58:15;4.40;99.90
48752;DHT22;34544;48.836;9.174;2023-04-03T03:00:41;4.40;99.90
48752;DHT22;34544;48.836;9.174;2023-04-03T03:03:07;4.40;99.90
48752;DHT22;34544;48.836;9.174;2023-04-03T03:05:33;4.40;99.90
48752;DHT22;34544;48.836;9.174;2023-04-03T03:07:59;4.40;99.90
48752;DHT22;34544;48.836;9.174;2023-04-03T03:10:25;4.50;99.90
48752;DHT22;34544;48.836;9.174;2023-04-03T03:12:50;4.50;99.90
48752;DHT22;34544;48.836;9.174;2023-04-03T03:15:16;4.50;99.90
48752;DHT22;34544;48.836;9.174;2023-04-03T03:17:43;4.50;99.90
48752;DHT22;34544;48.836;9.174;2023-04-03T03:20:09;4.50;99.90
48752;DHT22;34544;48.836;9.174;2023-04-03T03:22:36;4.50;99.90
48752;DHT22;34544;48.836;9.174;2023-04-03T03:25:02;4.50;99.90
48752;DHT22;34544;48.836;9.174;2023-04-03T03:27:28;4.50;99.90
48752;DHT22;34544;48.836;9.174;2023-04-03T03:29:54;4.60;99.90
48752;DHT22;34544;48.836;9.174;2023-04-03T03:32:20;4.60;99.90
48752;DHT22;34544;48.836;9.174;2023-04-03T03:34:46;4.60;99.90
48752;DHT22;34544;48.836;9.174;2023-04-03T03:37:11;4.60;99.90
48752;DHT22;34544;48.836;9.174;2023-04-03T03:39:37;4.60;99.90
48752;DHT22;34544;48.836;9.174;2023-04-03T03:42:03;4.60;99.90
48752;DHT22;34544;48.836;9.174;2023-04-03T03:44:29;4.60;99.90
48752;DHT22;34544;48.836;9.174;2023-04-03T03:46:55;4.60;99.90
48752;DHT22;34544;48.836;9.174;2023-04-03T03:49:22;4.60;99.90
48752;DHT22;34544;48.836;9.174;2023-04-03T03:51:48;4.60;99.90
48752;DHT22;34544;48.836;9.174;2023-04-03T03:54:14;4.60;99.90
48752;DHT22;34544;48.836;9.174;2023-04-03T03:56:40;4.60;99.90
48752;DHT22;34544;48.836;9.174;2023-04-03T03:59:06;4.60;99.90
48752;DHT22;34544;48.836;9.174;2023-04-03T04:01:33;4.50;99.90
48752;DHT22;34544;48.836;9.174;2023-04-03T04:03:58;4.50;99.90
48752;DHT22;34544;48.836;9.174;2023-04-03T04:06:28;4.50;99.90
48752;DHT22;34544;48.836;9.174;2023-04-03T04:08:58;4.50;99.90
48752;DHT22;34544;48.836;9.174;2023-04-03T04:11:24;4.50;99.90
48752;DHT22;34544;48.836;9.174;2023-04-03T04:13:51;4.50;99.90
48752;DHT22;34544;48.836;9.174;2023-04-03T04:16:19;4.60;99.90
48752;DHT22;34544;48.836;9.174;2023-04-03T04:18:45;4.60;99.90
48752;DHT22;34544;48.836;9.174;2023-04-03T04:21:11;4.70;99.90
48752;DHT22;34544;48.836;9.174;2023-04-03T04:23:38;4.80;99.90
48752;DHT22;34544;48.836;9.174;2023-04-03T04:26:03;4.80;99.90
48752;DHT22;34544;48.836;9.174;2023-04-03T04:28:33;4.80;99.90
48752;DHT22;34544;48.836;9.174;2023-04-03T04:31:01;4.70;99.90
48752;DHT22;34544;48.836;9.174;2023-04-03T04:33:28;4.70;99.90
48752;DHT22;34544;48.836;9.174;2023-04-03T04:35:54;4.70;99.90
48752;DHT22;34544;48.836;9.174;2023-04-03T04:38:21;4.70;99.90
48752;DHT22;34544;48.836;9.174;2023-04-03T04:40:48;4.70;99.90
48752;DHT22;34544;48.836;9.174;2023-04-03T04:43:14;4.60;99.90
48752;DHT22;34544;48.836;9.174;2023-04-03T04:45:42;4.60;99.90
48752;DHT22;34544;48.836;9.174;2023-04-03T04:48:08;4.60;99.90
48752;DHT22;34544;48.836;9.174;2023-04-03T04:50:35;4.60;99.90
48752;DHT22;34544;48.836;9.174;2023-04-03T04:53:00;4.60;99.90
48752;DHT22;34544;48.836;9.174;2023-04-03T04:55:26;4.50;99.90
48752;DHT22;34544;48.836;9.174;2023-04-03T04:57:52;4.50;99.90
48752;DHT22;34544;48.836;9.174;2023-04-03T05:00:19;4.50;99.90
48752;DHT22;34544;48.836;9.174;2023-04-03T05:02:45;4.50;99.90
48752;DHT22;34544;48.836;9.174;2023-04-03T05:05:12;4.60;99.90
48752;DHT22;34544;48.836;9.174;2023-04-03T05:07:37;4.60;99.90
48752;DHT22;34544;48.836;9.174;2023-04-03T05:10:03;4.60;99.90
48752;DHT22;34544;48.836;9.174;2023-04-03T05:12:32;4.60;99.90
48752;DHT22;34544;48.836;9.174;2023-04-03T05:15:00;4.60;99.90
48752;DHT22;34544;48.836;9.174;2023-04-03T05:17:27;4.60;99.90
48752;DHT22;34544;48.836;9.174;2023-04-03T05:19:55;4.70;99.90
48752;DHT22;34544;48.836;9.174;2023-04-03T05:22:22;4.70;99.90
48752;DHT22;34544;48.836;9.174;2023-04-03T05:24:50;4.70;99.90
48752;DHT22;34544;48.836;9.174;2023-04-03T05:27:18;4.70;99.90
48752;DHT22;34544;48.836;9.174;2023-04-03T05:29:47;4.70;99.90
48752;DHT22;34544;48.836;9.174;2023-04-03T05:32:19;4.70;99.90
48752;DHT22;34544;48.836;9.174;2023-04-03T05:34:49;4.70;99.90
48752;DHT22;34544;48.836;9.174;2023-04-03T05:37:15;4.70;99.90
48752;DHT22;34544;48.836;9.174;2023-04-03T05:39:41;4.80;99.90
48752;DHT22;34544;48.836;9.174;2023-04-03T05:42:08;4.80;99.90
48752;DHT22;34544;48.836;9.174;2023-04-03T05:44:34;4.80;99.90
48752;DHT22;34544;48.836;9.174;2023-04-03T05:47:00;4.80;99.90
48752;DHT22;34544;48.836;9.174;2023-04-03T05:49:26;4.80;99.90
48752;DHT22;34544;48.836;9.174;2023-04-03T05:51:52;4.70;99.90
48752;DHT22;34544;48.836;9.174;2023-04-03T05:54:28;4.70;99.90
48752;DHT22;34544;48.836;9.174;2023-04-03T05:57:02;4.70;99.90
48752;DHT22;34544;48.836;9.174;2023-04-03T05:59:28;4.80;99.90
48752;DHT22;34544;48.836;9.174;2023-04-03T06:01:56;4.80;99.90
48752;DHT22;34544;48.836;9.174;2023-04-03T06:04:23;4.80;99.90
48752;DHT22;34544;48.836;9.174;2023-04-03T06:06:51;4.80;99.90
48752;DHT22;34544;48.836;9.174;2023-04-03T06:09:19;4.90;99.90
48752;DHT22;34544;48.836;9.174;2023-04-03T06:11:45;4.90;99.90
48752;DHT22;34544;48.836;9.174;2023-04-03T06:14:11;5.00;99.90
48752;DHT22;34544;48.836;9.174;2023-04-03T06:16:38;5.00;99.90
48752;DHT22;34544;48.836;9.174;2023-04-03T06:19:07;5.00;99.90
48752;DHT22;34544;48.836;9.174;2023-04-03T06:21:34;5.00;99.90
48752;DHT22;34544;48.836;9.174;2023-04-03T06:24:03;5.00;99.90
48752;DHT22;34544;48.836;9.174;2023-04-03T06:26:29;5.00;99.90
48752;DHT22;34544;48.836;9.174;2023-04-03T06:28:55;5.00;99.90
48752;DHT22;34544;48.836;9.174;2023-04-03T06:31:21;5.00;99.90
48752;DHT22;34544;48.836;9.174;2023-04-03T06:33:47;5.00;99.90
48752;DHT22;34544;48.836;9.174;2023-04-03T06:36:13;5.10;99.90
48752;DHT22;34544;48.836;9.174;2023-04-03T06:38:39;5.10;99.90
48752;DHT22;34544;48.836;9.174;2023-04-03T06:41:04;5.10;99.90
48752;DHT22;34544;48.836;9.174;2023-04-03T06:43:30;5.30;99.90
48752;DHT22;34544;48.836;9.174;2023-04-03T06:45:59;5.30;99.90
48752;DHT22;34544;48.836;9.174;2023-04-03T06:48:24;5.40;99.90
48752;DHT22;34544;48.836;9.174;2023-04-03T06:50:50;5.40;99.90
48752;DHT22;34544;48.836;9.174;2023-04-03T06:53:16;5.40;99.90
48752;DHT22;34544;48.836;9.174;2023-04-03T06:55:41;5.50;99.90
48752;DHT22;34544;48.836;9.174;2023-04-03T06:58:07;5.50;99.90
48752;DHT22;34544;48.836;9.174;2023-04-03T07:00:33;5.60;99.90
48752;DHT22;34544;48.836;9.174;2023-04-03T07:02:59;5.60;99.90
48752;DHT22;34544;48.836;9.174;2023-04-03T07:05:25;5.70;99.90
48752;DHT22;34544;48.836;9.174;2023-04-03T07:07:51;5.70;99.90
48752;DHT22;34544;48.836;9.174;2023-04-03T07:10:17;5.70;99.90
48752;DHT22;34544;48.836;9.174;2023-04-03T07:12:43;5.80;99.90
48752;DHT22;34544;48.836;9.174;2023-04-03T07:15:09;5.80;99.90
48752;DHT22;34544;48.836;9.174;2023-04-03T07:17:35;5.90;99.90
48752;DHT22;34544;48.836;9.174;2023-04-03T07:20:02;6.00;99.90
48752;DHT22;34544;48.836;9.174;2023-04-03T07:22:30;6.10;99.90
48752;DHT22;34544;48.836;9.174;2023-04-03T07:24:56;6.10;99.90
48752;DHT22;34544;48.836;9.174;2023-04-03T07:27:22;6.20;99.90
48752;DHT22;34544;48.836;9.174;2023-04-03T07:29:47;6.30;99.90
48752;DHT22;34544;48.836;9.174;2023-04-03T07:32:14;6.30;99.90
48752;DHT22;34544;48.836;9.174;2023-04-03T07:34:40;6.40;99.90
48752;DHT22;34544;48.836;9.174;2023-04-03T07:37:06;6.50;99.90
48752;DHT22;34544;48.836;9.174;2023-04-03T07:39:32;6.60;99.90
48752;DHT22;34544;48.836;9.174;2023-04-03T07:41:58;6.60;99.90
48752;DHT22;34544;48.836;9.174;2023-04-03T07:44:24;6.70;99.90
48752;DHT22;34544;48.836;9.174;2023-04-03T07:46:50;6.80;99.90
48752;DHT22;34544;48.836;9.174;2023-04-03T07:49:17;7.00;99.90
48752;DHT22;34544;48.836;9.174;2023-04-03T07:51:44;7.20;99.90
48752;DHT22;34544;48.836;9.174;2023-04-03T07:54:10;7.10;99.90
48752;DHT22;34544;48.836;9.174;2023-04-03T07:56:36;7.30;99.90
48752;DHT22;34544;48.836;9.174;2023-04-03T07:59:02;7.40;99.90
48752;DHT22;34544;48.836;9.174;2023-04-03T08:01:27;7.70;99.90
48752;DHT22;34544;48.836;9.174;2023-04-03T08:06:19;8.10;99.90
48752;DHT22;34544;48.836;9.174;2023-04-03T08:08:45;8.30;99.90
48752;DHT22;34544;48.836;9.174;2023-04-03T08:11:11;8.10;99.90
48752;DHT22;34544;48.836;9.174;2023-04-03T08:13:37;8.30;99.90
48752;DHT22;34544;48.836;9.174;2023-04-03T08:18:36;8.60;99.90
48752;DHT22;34544;48.836;9.174;2023-04-03T08:23:31;9.20;99.90
48752;DHT22;34544;48.836;9.174;2023-04-03T08:25:57;8.90;99.90
48752;DHT22;34544;48.836;9.174;2023-04-03T08:28:23;9.00;99.90
48752;DHT22;34544;48.836;9.174;2023-04-03T08:30:48;8.90;99.90
48752;DHT22;34544;48.836;9.174;2023-04-03T08:33:14;8.90;99.90
48752;DHT22;34544;48.836;9.174;2023-04-03T08:35:41;8.90;99.90
48752;DHT22;34544;48.836;9.174;2023-04-03T08:38:08;8.90;99.90
48752;DHT22;34544;48.836;9.174;2023-04-03T08:40:34;8.80;99.90
48752;DHT22;34544;48.836;9.174;2023-04-03T08:45:49;9.00;99.90
48752;DHT22;34544;48.836;9.174;2023-04-03T08:50:50;9.20;99.90
48752;DHT22;34544;48.836;9.174;2023-04-03T08:53:26;9.20;99.90
48752;DHT22;34544;48.836;9.174;2023-04-03T08:55:55;9.10;99.90
48752;DHT22;34544;48.836;9.174;2023-04-03T08:58:29;9.00;99.90
48752;DHT22;34544;48.836;9.174;2023-04-03T09:01:15;9.00;99.90
48752;DHT22;34544;48.836;9.174;2023-04-03T09:03:42;9.00;99.90
48752;DHT22;34544;48.836;9.174;2023-04-03T09:06:26;9.00;99.90
48752;DHT22;34544;48.836;9.174;2023-04-03T09:09:24;9.00;99.90
48752;DHT22;34544;48.836;9.174;2023-04-03T09:12:25;9.30;99.90
48752;DHT22;34544;48.836;9.174;2023-04-03T09:20:54;9.50;99.90
48752;DHT22;34544;48.836;9.174;2023-04-03T09:23:26;9.20;99.90
48752;DHT22;34544;48.836;9.174;2023-04-03T09:25:58;9.00;99.90
48752;DHT22;34544;48.836;9.174;2023-04-03T09:28:25;8.90;99.90
48752;DHT22;34544;48.836;9.174;2023-04-03T09:30:51;8.70;99.90
48752;DHT22;34544;48.836;9.174;2023-04-03T09:33:17;8.70;99.90
48752;DHT22;34544;48.836;9.174;2023-04-03T09:35:43;8.90;99.90
48752;DHT22;34544;48.836;9.174;2023-04-03T09:40:42;9.20;99.90
48752;DHT22;34544;48.836;9.174;2023-04-03T09:43:21;9.30;99.90
48752;DHT22;34544;48.836;9.174;2023-04-03T09:45:49;9.30;99.90
48752;DHT22;34544;48.836;9.174;2023-04-03T09:48:18;9.30;99.90
48752;DHT22;34544;48.836;9.174;2023-04-03T09:53:37;9.30;99.90
48752;DHT22;34544;48.836;9.174;2023-04-03T09:56:04;9.20;99.90
48752;DHT22;34544;48.836;9.174;2023-04-03T09:58:38;9.20;99.90
48752;DHT22;34544;48.836;9.174;2023-04-03T10:01:09;9.20;99.90
48752;DHT22;34544;48.836;9.174;2023-04-03T10:03:45;9.10;99.90
48752;DHT22;34544;48.836;9.174;2023-04-03T10:06:23;9.00;99.90
48752;DHT22;34544;48.836;9.174;2023-04-03T10:09:00;9.10;99.90
48752;DHT22;34544;48.836;9.174;2023-04-03T10:11:30;9.20;99.90
48752;DHT22;34544;48.836;9.174;2023-04-03T10:14:00;9.10;99.90
48752;DHT22;34544;48.836;9.174;2023-04-03T10:16:28;9.10;99.90
48752;DHT22;34544;48.836;9.174;2023-04-03T10:19:57;9.00;99.90
48752;DHT22;34544;48.836;9.174;2023-04-03T10:24:50;9.00;99.90
48752;DHT22;34544;48.836;9.174;2023-04-03T10:39:08;8.60;99.90
48752;DHT22;34544;48.836;9.174;2023-04-03T10:45:26;8.40;99.90
48752;DHT22;34544;48.836;9.174;2023-04-03T10:48:04;8.40;99.90
48752;DHT22;34544;48.836;9.174;2023-04-03T10:50:51;8.20;99.90
48752;DHT22;34544;48.836;9.174;2023-04-03T11:01:35;8.20;99.90
48752;DHT22;34544;48.836;9.174;2023-04-03T11:04:04;8.20;99.90
48752;DHT22;34544;48.836;9.174;2023-04-03T11:07:20;8.30;99.90
48752;DHT22;34544;48.836;9.174;2023-04-03T11:09:49;8.40;99.90
48752;DHT22;34544;48.836;9.174;2023-04-03T11:12:21;8.50;99.90
48752;DHT22;34544;48.836;9.174;2023-04-03T11:14:51;8.60;99.90
48752;DHT22;34544;48.836;9.174;2023-04-03T11:17:26;8.60;99.90
48752;DHT22;34544;48.836;9.174;2023-04-03T11:20:06;8.60;99.90
48752;DHT22;34544;48.836;9.174;2023-04-03T11:22:39;8.70;99.90
48752;DHT22;34544;48.836;9.174;2023-04-03T11:27:44;8.60;99.90
48752;DHT22;34544;48.836;9.174;2023-04-03T11:33:24;8.40;99.90
48752;DHT22;34544;48.836;9.174;2023-04-03T11:35:57;8.40;99.90
48752;DHT22;34544;48.836;9.174;2023-04-03T11:38:28;8.50;99.90
48752;DHT22;34544;48.836;9.174;2023-04-03T11:40:57;8.50;99.90
48752;DHT22;34544;48.836;9.174;2023-04-03T11:43:28;8.60;99.90
48752;DHT22;34544;48.836;9.174;2023-04-03T11:46:02;8.60;99.90
48752;DHT22;34544;48.836;9.174;2023-04-03T11:50:57;8.60;99.90
48752;DHT22;34544;48.836;9.174;2023-04-03T11:55:56;8.70;99.90
48752;DHT22;34544;48.836;9.174;2023-04-03T11:58:27;8.70;99.90
48752;DHT22;34544;48.836;9.174;2023-04-03T12:00:56;8.80;99.90
48752;DHT22;34544;48.836;9.174;2023-04-03T12:26:46;9.30;99.90
48752;DHT22;34544;48.836;9.174;2023-04-03T12:29:14;9.40;99.90
48752;DHT22;34544;48.836;9.174;2023-04-03T12:35:10;9.60;99.90
48752;DHT22;34544;48.836;9.174;2023-04-03T12:38:20;9.70;99.80
48752;DHT22;34544;48.836;9.174;2023-04-03T12:41:17;9.80;99.90
48752;DHT22;34544;48.836;9.174;2023-04-03T12:44:12;9.80;99.90
48752;DHT22;34544;48.836;9.174;2023-04-03T12:46:45;9.70;99.80
48752;DHT22;34544;48.836;9.174;2023-04-03T12:49:32;9.60;99.90
48752;DHT22;34544;48.836;9.174;2023-04-03T12:51:58;9.60;99.90
48752;DHT22;34544;48.836;9.174;2023-04-03T12:54:36;9.50;99.90
48752;DHT22;34544;48.836;9.174;2023-04-03T12:59:36;9.50;99.90
48752;DHT22;34544;48.836;9.174;2023-04-03T13:02:15;9.40;99.90
48752;DHT22;34544;48.836;9.174;2023-04-03T13:04:43;9.40;99.70
48752;DHT22;34544;48.836;9.174;2023-04-03T13:07:29;9.30;99.40
48752;DHT22;34544;48.836;9.174;2023-04-03T13:10:04;9.30;99.80
48752;DHT22;34544;48.836;9.174;2023-04-03T13:12:52;9.50;99.90
48752;DHT22;34544;48.836;9.174;2023-04-03T13:15:27;10.00;99.90
48752;DHT22;34544;48.836;9.174;2023-04-03T13:17:54;10.30;99.40
48752;DHT22;34544;48.836;9.174;2023-04-03T13:22:58;10.60;99.00
48752;DHT22;34544;48.836;9.174;2023-04-03T13:25:28;10.50;99.00
48752;DHT22;34544;48.836;9.174;2023-04-03T13:27:56;10.50;99.40
48752;DHT22;34544;48.836;9.174;2023-04-03T13:30:30;10.40;99.20
48752;DHT22;34544;48.836;9.174;2023-04-03T13:32:58;10.30;99.70
48752;DHT22;34544;48.836;9.174;2023-04-03T13:35:34;10.30;98.50
48752;DHT22;34544;48.836;9.174;2023-04-03T13:38:28;10.30;98.60
48752;DHT22;34544;48.836;9.174;2023-04-03T13:41:02;10.40;97.40
48752;DHT22;34544;48.836;9.174;2023-04-03T13:43:35;10.40;97.80
48752;DHT22;34544;48.836;9.174;2023-04-03T13:48:46;10.50;97.30
48752;DHT22;34544;48.836;9.174;2023-04-03T13:53:47;10.70;96.40
48752;DHT22;34544;48.836;9.174;2023-04-03T13:56:27;10.70;96.20
48752;DHT22;34544;48.836;9.174;2023-04-03T13:59:06;10.70;95.90
48752;DHT22;34544;48.836;9.174;2023-04-03T14:04:29;10.50;96.70
48752;DHT22;34544;48.836;9.174;2023-04-03T14:06:56;10.50;95.90
48752;DHT22;34544;48.836;9.174;2023-04-03T14:09:24;10.40;96.90
48752;DHT22;34544;48.836;9.174;2023-04-03T14:11:53;10.30;97.10
48752;DHT22;34544;48.836;9.174;2023-04-03T14:14:37;10.30;96.90
48752;DHT22;34544;48.836;9.174;2023-04-03T14:17:14;10.20;97.20
48752;DHT22;34544;48.836;9.174;2023-04-03T14:19:41;10.20;96.60
48752;DHT22;34544;48.836;9.174;2023-04-03T14:22:19;10.10;97.20
48752;DHT22;34544;48.836;9.174;2023-04-03T14:24:47;10.00;96.40
48752;DHT22;34544;48.836;9.174;2023-04-03T14:27:40;9.80;95.70
48752;DHT22;34544;48.836;9.174;2023-04-03T14:30:12;9.80;96.00
48752;DHT22;34544;48.836;9.174;2023-04-03T14:32:38;9.80;95.90
48752;DHT22;34544;48.836;9.174;2023-04-03T14:35:05;9.80;96.20
48752;DHT22;34544;48.836;9.174;2023-04-03T14:37:31;9.90;96.00
48752;DHT22;34544;48.836;9.174;2023-04-03T14:39:59;9.90;94.50
48752;DHT22;34544;48.836;9.174;2023-04-03T14:42:31;10.10;95.60
48752;DHT22;34544;48.836;9.174;2023-04-03T14:44:59;10.70;94.80
48752;DHT22;34544;48.836;9.174;2023-04-03T14:47:27;11.00;95.70
48752;DHT22;34544;48.836;9.174;2023-04-03T14:49:54;11.10;94.10
48752;DHT22;34544;48.836;9.174;2023-04-03T14:52:29;11.00;95.10
48752;DHT22;34544;48.836;9.174;2023-04-03T14:54:56;10.90;95.00
48752;DHT22;34544;48.836;9.174;2023-04-03T14:57:24;10.80;94.90
48752;DHT22;34544;48.836;9.174;2023-04-03T14:59:51;10.70;94.80
48752;DHT22;34544;48.836;9.174;2023-04-03T15:02:30;10.50;95.10
48752;DHT22;34544;48.836;9.174;2023-04-03T15:04:56;10.40;94.20
48752;DHT22;34544;48.836;9.174;2023-04-03T15:07:24;10.30;95.20
48752;DHT22;34544;48.836;9.174;2023-04-03T15:09:50;10.30;95.60
48752;DHT22;34544;48.836;9.174;2023-04-03T15:12:16;10.60;95.30
48752;DHT22;34544;48.836;9.174;2023-04-03T15:14:42;10.80;94.80
48752;DHT22;34544;48.836;9.174;2023-04-03T15:17:16;10.90;94.50
48752;DHT22;34544;48.836;9.174;2023-04-03T15:19:42;10.90;94.00
48752;DHT22;34544;48.836;9.174;2023-04-03T15:22:17;10.90;94.70
48752;DHT22;34544;48.836;9.174;2023-04-03T15:24:43;10.80;94.30
48752;DHT22;34544;48.836;9.174;2023-04-03T15:27:10;10.80;94.20
48752;DHT22;34544;48.836;9.174;2023-04-03T15:29:37;10.70;93.80
48752;DHT22;34544;48.836;9.174;2023-04-03T15:32:03;10.50;94.50
48752;DHT22;34544;48.836;9.174;2023-04-03T15:36:54;10.00;94.40
48752;DHT22;34544;48.836;9.174;2023-04-03T15:39:20;9.90;94.80
48752;DHT22;34544;48.836;9.174;2023-04-03T15:41:46;9.80;95.20
48752;DHT22;34544;48.836;9.174;2023-04-03T15:44:12;10.00;94.50
48752;DHT22;34544;48.836;9.174;2023-04-03T15:46:38;10.50;93.70
48752;DHT22;34544;48.836;9.174;2023-04-03T15:49:05;11.10;93.70
48752;DHT22;34544;48.836;9.174;2023-04-03T15:51:31;11.90;93.50
48752;DHT22;34544;48.836;9.174;2023-04-03T15:53:56;12.50;91.00
48752;DHT22;34544;48.836;9.174;2023-04-03T15:56:22;13.10;90.40
48752;DHT22;34544;48.836;9.174;2023-04-03T15:58:48;13.70;89.00
48752;DHT22;34544;48.836;9.174;2023-04-03T16:01:14;14.20;87.40
48752;DHT22;34544;48.836;9.174;2023-04-03T16:03:41;14.60;88.80
48752;DHT22;34544;48.836;9.174;2023-04-03T16:06:16;15.30;99.90
48752;DHT22;34544;48.836;9.174;2023-04-03T16:08:42;15.30;86.50
48752;DHT22;34544;48.836;9.174;2023-04-03T16:13:35;15.80;98.80
48752;DHT22;34544;48.836;9.174;2023-04-03T16:16:01;15.40;99.90
48752;DHT22;34544;48.836;9.174;2023-04-03T16:18:28;16.20;88.30
48752;DHT22;34544;48.836;9.174;2023-04-03T16:20:54;13.90;90.50
48752;DHT22;34544;48.836;9.174;2023-04-03T16:23:20;13.20;88.60
48752;DHT22;34544;48.836;9.174;2023-04-03T16:25:47;12.50;89.20
48752;DHT22;34544;48.836;9.174;2023-04-03T16:28:13;11.70;89.60
48752;DHT22;34544;48.836;9.174;2023-04-03T16:30:41;11.10;91.30
48752;DHT22;34544;48.836;9.174;2023-04-03T16:33:07;10.70;91.70
48752;DHT22;34544;48.836;9.174;2023-04-03T16:35:34;10.50;92.60
48752;DHT22;34544;48.836;9.174;2023-04-03T16:37:59;10.80;92.60
48752;DHT22;34544;48.836;9.174;2023-04-03T16:40:25;11.20;91.60
48752;DHT22;34544;48.836;9.174;2023-04-03T16:42:50;11.60;91.20
48752;DHT22;34544;48.836;9.174;2023-04-03T16:45:16;11.80;91.10
48752;DHT22;34544;48.836;9.174;2023-04-03T16:47:42;11.50;90.50
48752;DHT22;34544;48.836;9.174;2023-04-03T16:50:08;11.10;90.50
48752;DHT22;34544;48.836;9.174;2023-04-03T16:52:34;10.80;90.80
48752;DHT22;34544;48.836;9.174;2023-04-03T16:55:00;10.50;91.20
48752;DHT22;34544;48.836;9.174;2023-04-03T16:57:26;10.10;91.40
48752;DHT22;34544;48.836;9.174;2023-04-03T16:59:52;9.80;92.10
48752;DHT22;34544;48.836;9.174;2023-04-03T17:02:19;9.50;93.10
48752;DHT22;34544;48.836;9.174;2023-04-03T17:04:44;9.30;93.50
48752;DHT22;34544;48.836;9.174;2023-04-03T17:07:10;9.10;93.40
48752;DHT22;34544;48.836;9.174;2023-04-03T17:09:36;8.90;94.40
48752;DHT22;34544;48.836;9.174;2023-04-03T17:12:02;8.70;94.10
48752;DHT22;34544;48.836;9.174;2023-04-03T17:14:28;8.50;94.90
48752;DHT22;34544;48.836;9.174;2023-04-03T17:16:54;8.30;94.70
48752;DHT22;34544;48.836;9.174;2023-04-03T17:19:19;8.10;95.20
48752;DHT22;34544;48.836;9.174;2023-04-03T17:21:45;8.00;95.20
48752;DHT22;34544;48.836;9.174;2023-04-03T17:24:13;7.80;95.60
48752;DHT22;34544;48.836;9.174;2023-04-03T17:26:41;7.70;95.80
48752;DHT22;34544;48.836;9.174;2023-04-03T17:29:07;7.60;96.20
48752;DHT22;34544;48.836;9.174;2023-04-03T17:31:33;7.40;96.10
48752;DHT22;34544;48.836;9.174;2023-04-03T17:33:59;7.30;97.10
48752;DHT22;34544;48.836;9.174;2023-04-03T17:36:29;7.20;96.30
48752;DHT22;34544;48.836;9.174;2023-04-03T17:38:55;7.10;96.90
48752;DHT22;34544;48.836;9.174;2023-04-03T17:41:21;6.90;96.80
48752;DHT22;34544;48.836;9.174;2023-04-03T17:43:47;6.80;97.30
48752;DHT22;34544;48.836;9.174;2023-04-03T17:46:12;6.70;97.70
48752;DHT22;34544;48.836;9.174;2023-04-03T17:48:40;6.70;97.70